Malo, WA (99150)

12:54 AM PDT on August 31, 2014 (GMT -0700)
IBCGRAND2 | Change Station
CLOSE
Current Station
Personal Weather Station
Location: Grand Forks, BC
Elevation: 1686 ft
Nearby Weather Stations

Elev 1686 ft 49.03 °N, 118.45 °W | Updated 3 minutes ago

Mostly Cloudy
Mostly Cloudy
56.6 °F
Feels Like 56.6 °F
N
0.0
Wind Variable Wind from SW
Gusts 0.0 mph

Today
High -- | Low -- °F
--% Chance of Precip.
Yesterday
High -- | Low -- °F
Precip. -- in
6:10 AM 7:38 PM
Waxing Crescent, 28% visible
Pressure 29.79 in
Visibility 10.0 miles
Clouds Mostly Cloudy 9500 ft
Overcast 11000 ft
Dew Point 49 °F
Humidity 76%
Rainfall 0.00 in
Snow Depth Not available.
UV 0 out of 12
Pollen 7.40 out of 12
Air Quality Not available.
Flu Activity Not available.
METAR KOMK 310653Z AUTO 34008KT 10SM BKN095 OVC110 19/04 A2981 RMK AO2 SLP088 T01940039

More Conditions Fewer Conditions

Pressure 29.79 in
Visibility 10.0 miles
Clouds Mostly Cloudy 9500 ft
Overcast 11000 ft
Dew Point 49 °F
Humidity 76%
Rainfall 0.00 in
Snow Depth Not available.
UV 0 out of 12
Pollen 7.40 out of 12
Air Quality Not available.
Flu Activity Not available.
METAR KOMK 310653Z AUTO 34008KT 10SM BKN095 OVC110 19/04 A2981 RMK AO2 SLP088 T01940039

More Conditions Fewer Conditions

10-Day Weather Forecast

Almanac

Astronomy

Aug. 31, 2014 Rise Set
Actual Time 6:10 AM PDT 7:38 PM PDT
Civil Twilight 5:37 AM PDT 8:11 PM PDT
Nautical Twilight 4:57 AM PDT 8:50 PM PDT
Astronomical Twilight 4:13 AM PDT 9:34 PM PDT
Moon 12:32 PM PDT 10:24 PM PDT
Length of Visible Light 14h 33m
Length of Day
13h 28m
Tomorrow will be 3m 26s shorter.
Waxing Crescent, 28% of the Moon is Illuminated
Today
Waxing Crescent
Sep 2
First Quarter
Sep 8
Full
Sep 15
Last Quarter
Sep 24
New

Today's Extremes

State Highs State Lows

Community

WunderPhotos

Upload Photos

1,748,809 photos uploaded!

Nearby

Snow Depth

Station Depth Elevation
Sentinel Butte 1 in 4920 ft
Moses Mountain 1 in 5300 ft
Bunchgrass Meadow 0 in 5000 ft
Harts Pass 0 in 6500 ft
Quartz Peak 2 in 4700 ft

Earthquake Activity

City Distance Mag. Time & Date
No recent earthquake activity has been reported nearby.
Minimum magnitude displayed is 2.5.

Coastal Water Temperatures

Place Temperature
No Stations Reporting

Nearby Weather Stations